createdAt,value
2019-05-16T08:09:30.588Z,9.68
2019-05-16T08:12:01.607Z,9.85
2019-05-16T08:14:30.366Z,8.98
2019-05-16T08:17:01.149Z,8.30
2019-05-16T08:19:30.574Z,6.12
2019-05-16T08:22:01.231Z,10.93
2019-05-16T08:24:30.948Z,12.88
2019-05-16T08:27:01.183Z,7.42
2019-05-16T08:29:31.728Z,7.87
2019-05-16T08:32:02.240Z,8.33
2019-05-16T08:34:32.202Z,7.72
2019-05-16T08:37:01.126Z,5.30
2019-05-16T08:39:31.419Z,8.03
2019-05-16T08:42:07.814Z,7.10
2019-05-16T08:44:32.373Z,6.42
2019-05-16T08:47:06.295Z,5.90
2019-05-16T08:49:30.889Z,6.42
2019-05-16T08:52:01.498Z,8.18
2019-05-16T08:54:31.834Z,9.35
2019-05-16T08:57:17.144Z,4.53
2019-05-16T08:59:33.847Z,4.95
2019-05-16T09:02:03.356Z,10.32
2019-05-16T09:04:33.570Z,4.33
2019-05-16T09:07:01.927Z,7.40
2019-05-16T09:10:34.258Z,11.20
2019-05-16T09:11:59.879Z,6.72
2019-05-16T09:14:31.912Z,5.30
2019-05-16T09:16:58.295Z,7.03
2019-05-16T09:19:27.528Z,4.30
2019-05-16T09:21:58.067Z,7.15
2019-05-16T09:24:27.202Z,4.97
2019-05-16T09:26:57.898Z,4.05
2019-05-16T09:29:27.294Z,5.22
2019-05-16T09:32:09.048Z,4.90
2019-05-16T09:34:28.396Z,7.60
2019-05-16T09:37:00.465Z,4.20
2019-05-16T09:39:27.728Z,7.47
2019-05-16T09:41:58.679Z,4.10
2019-05-16T09:44:27.247Z,3.75
2019-05-16T09:46:56.980Z,8.48
2019-05-16T09:49:26.212Z,6.53
2019-05-16T09:51:56.731Z,5.83
2019-05-16T09:54:27.173Z,4.58
2019-05-16T09:56:56.991Z,6.25
2019-05-16T09:59:26.377Z,7.33
2019-05-16T10:01:57.107Z,3.98
2019-05-16T10:04:26.701Z,4.53
2019-05-16T10:06:57.018Z,3.45
2019-05-16T10:09:40.283Z,6.53
2019-05-16T10:12:10.411Z,7.85
2019-05-16T10:14:26.866Z,8.95
2019-05-16T10:16:57.729Z,5.78
2019-05-16T10:19:27.568Z,5.45
2019-05-16T10:22:00.027Z,6.90
2019-05-16T10:24:26.848Z,4.15
2019-05-16T10:26:57.180Z,6.83
2019-05-16T10:29:27.350Z,8.05
2019-05-16T10:31:56.870Z,9.03
2019-05-16T10:34:26.598Z,6.62
2019-05-16T10:36:57.559Z,5.42
2019-05-16T10:39:26.754Z,7.70
2019-05-16T10:41:57.400Z,6.75
2019-05-16T10:44:28.088Z,7.37
2019-05-16T10:46:55.463Z,7.70
2019-05-16T10:49:34.295Z,7.05
2019-05-16T10:51:53.794Z,3.72
2019-05-16T10:54:22.196Z,5.03
2019-05-16T10:56:50.838Z,7.60
2019-05-16T10:59:54.547Z,4.83
2019-05-16T11:01:49.585Z,4.70
2019-05-16T11:04:28.469Z,3.02
2019-05-16T11:06:48.110Z,4.92
2019-05-16T11:09:17.352Z,3.25
2019-05-16T11:11:47.616Z,5.05
2019-05-16T11:14:17.373Z,3.85
2019-05-16T11:16:47.395Z,4.75
2019-05-16T11:19:21.264Z,5.72
2019-05-16T11:21:46.879Z,2.75
2019-05-16T11:24:15.459Z,4.20
2019-05-16T11:26:43.811Z,3.00
2019-05-16T11:29:12.111Z,2.85
2019-05-16T11:31:40.433Z,4.17
2019-05-16T11:34:08.848Z,5.22
2019-05-16T11:36:37.674Z,2.87
2019-05-16T11:39:08.695Z,6.47
2019-05-16T11:41:37.276Z,3.87
2019-05-16T11:44:06.691Z,3.87
2019-05-16T11:46:37.427Z,3.95
2019-05-16T11:49:05.406Z,4.87
2019-05-16T11:51:33.745Z,6.55
2019-05-16T11:54:02.283Z,4.97
2019-05-16T11:56:30.606Z,3.83
2019-05-16T11:58:58.912Z,9.18
2019-05-16T12:01:27.698Z,3.50
2019-05-16T12:03:57.514Z,30.25
2019-05-16T12:06:26.877Z,127.70
2019-05-16T12:08:55.383Z,465.50
2019-05-16T12:11:23.712Z,691.55
2019-05-16T12:13:52.512Z,823.00
2019-05-16T12:16:20.861Z,853.42
2019-05-16T12:18:49.175Z,865.77
2019-05-16T12:21:17.497Z,600.72
2019-05-16T12:23:47.335Z,419.85
2019-05-16T12:26:17.535Z,437.95
2019-05-16T12:28:45.820Z,354.73
2019-05-16T12:31:17.141Z,418.35
2019-05-16T12:33:44.286Z,214.35
2019-05-16T12:36:12.603Z,236.25
2019-05-16T12:38:41.005Z,236.43
2019-05-16T12:41:09.320Z,532.60
2019-05-16T12:43:48.900Z,492.60
2019-05-16T12:46:08.338Z,472.90
2019-05-16T12:48:37.519Z,411.32
2019-05-16T12:51:08.300Z,368.73
2019-05-16T12:53:36.717Z,354.15
2019-05-16T12:56:05.417Z,317.85
2019-05-16T12:58:42.169Z,298.43
2019-05-16T13:01:04.016Z,291.38
2019-05-16T13:03:32.580Z,270.42
2019-05-16T13:06:00.939Z,279.43
2019-05-16T13:08:29.278Z,277.70
2019-05-16T13:10:57.945Z,258.07
2019-05-16T13:13:27.866Z,263.35
2019-05-16T13:15:56.387Z,250.07
2019-05-16T13:18:27.314Z,246.80
2019-05-16T13:20:57.138Z,239.57
2019-05-16T13:23:26.931Z,232.07
2019-05-16T13:25:57.326Z,232.60
2019-05-16T13:28:25.058Z,228.12
2019-05-16T13:30:53.431Z,234.75
2019-05-16T13:33:21.753Z,224.18
2019-05-16T13:35:50.227Z,217.32
2019-05-16T13:38:18.535Z,215.22
2019-05-16T13:40:46.945Z,223.00
2019-05-16T13:43:17.492Z,214.60
2019-05-16T13:45:47.229Z,214.23
2019-05-16T13:48:17.246Z,208.17
2019-05-16T13:50:47.403Z,213.15
2019-05-16T13:53:16.374Z,206.65
2019-05-16T13:55:47.802Z,198.65
2019-05-16T13:58:17.895Z,202.15
2019-05-16T14:00:47.998Z,201.62
2019-05-16T14:03:17.904Z,199.82
2019-05-16T14:05:47.843Z,203.92
2019-05-16T14:08:17.044Z,191.10
2019-05-16T14:10:48.559Z,196.22
2019-05-16T14:13:16.540Z,194.72
2019-05-16T14:15:47.274Z,195.72
2019-05-16T14:18:17.472Z,173.72
2019-05-16T14:20:46.573Z,182.93
2019-05-16T14:23:17.703Z,136.65
2019-05-16T14:25:48.069Z,102.75
2019-05-16T14:28:17.341Z,72.78
2019-05-16T14:30:46.816Z,107.05
2019-05-16T14:33:17.207Z,125.45
2019-05-16T14:35:47.292Z,122.25
2019-05-16T14:38:17.572Z,120.40
2019-05-16T14:40:50.041Z,118.45
2019-05-16T14:43:17.128Z,121.87
2019-05-16T14:45:46.656Z,117.35
2019-05-16T14:48:18.162Z,117.42
2019-05-16T14:50:47.054Z,117.90
2019-05-16T14:53:17.936Z,114.55
2019-05-16T14:55:47.545Z,119.22
2019-05-16T14:58:15.818Z,120.87
2019-05-16T15:00:48.463Z,122.85
2019-05-16T15:03:14.434Z,113.55
2019-05-16T15:05:43.230Z,113.00
2019-05-16T15:08:11.733Z,110.48
2019-05-16T15:10:40.042Z,114.17
2019-05-16T15:13:08.528Z,112.32
2019-05-16T15:15:37.653Z,112.55
2019-05-16T15:18:08.189Z,114.12
2019-05-16T15:20:36.629Z,114.05
2019-05-16T15:23:07.622Z,101.10
2019-05-16T15:25:37.390Z,109.70
2019-05-16T15:28:07.306Z,106.00
2019-05-16T15:30:39.091Z,101.15
2019-05-16T15:33:08.512Z,106.85
2019-05-16T15:35:38.073Z,101.22
2019-05-16T15:38:07.813Z,110.88
2019-05-16T15:40:37.929Z,108.05
2019-05-16T15:43:07.933Z,99.03
2019-05-16T15:45:43.368Z,105.43
2019-05-16T15:48:12.200Z,101.20
2019-05-16T15:50:40.945Z,87.35
2019-05-16T15:53:09.423Z,106.92
2019-05-16T15:55:38.080Z,94.58
2019-05-16T15:58:07.397Z,102.82
2019-05-16T16:00:39.819Z,107.32
2019-05-16T16:03:08.269Z,99.00
2019-05-16T16:05:37.555Z,107.72
2019-05-16T16:08:06.947Z,105.50
2019-05-16T16:10:37.946Z,98.78
2019-05-16T16:13:06.869Z,95.00
2019-05-16T16:15:49.775Z,106.72
2019-05-16T16:18:08.969Z,97.25
2019-05-16T16:20:37.052Z,102.07
2019-05-16T16:23:06.816Z,91.80
2019-05-16T16:25:35.357Z,83.78
2019-05-16T16:28:07.137Z,93.90
2019-05-16T16:30:37.083Z,91.50
2019-05-16T16:33:19.058Z,92.53
2019-05-16T16:35:37.850Z,87.25
2019-05-16T16:38:07.040Z,91.12
2019-05-16T16:40:36.831Z,86.17
2019-05-16T16:43:07.987Z,86.42
2019-05-16T16:45:35.123Z,89.62
2019-05-16T16:48:03.624Z,80.80
2019-05-16T16:50:31.988Z,88.27
2019-05-16T16:53:00.287Z,84.37
2019-05-16T16:55:28.704Z,87.20
2019-05-16T16:57:59.607Z,85.70
2019-05-16T17:00:28.025Z,83.62
2019-05-16T17:03:05.674Z,95.42
2019-05-16T17:05:29.454Z,86.00
2019-05-16T17:07:57.768Z,85.83
2019-05-16T17:10:27.507Z,80.22
2019-05-16T17:12:57.631Z,79.72
2019-05-16T17:15:27.194Z,84.65
2019-05-16T17:17:57.422Z,77.40
2019-05-16T17:20:25.991Z,78.33
2019-05-16T17:22:54.298Z,85.83
2019-05-16T17:25:22.718Z,79.15
2019-05-16T17:27:51.023Z,72.05
2019-05-16T17:30:20.704Z,83.80
2019-05-16T17:32:49.269Z,78.90
2019-05-16T17:35:19.012Z,77.45
2019-05-16T17:37:48.591Z,80.65
2019-05-16T17:40:17.893Z,84.77
2019-05-16T17:42:47.724Z,71.10
2019-05-16T17:45:18.410Z,78.37
2019-05-16T17:47:46.906Z,79.70
2019-05-16T17:50:17.561Z,81.12
2019-05-16T17:52:47.605Z,80.38
2019-05-16T17:55:17.442Z,82.25
2019-05-16T17:57:46.257Z,49.48
2019-05-16T18:00:24.867Z,30.43
2019-05-16T18:02:46.561Z,27.80
2019-05-16T18:05:17.019Z,13.83
2019-05-16T18:07:47.456Z,16.85
2019-05-16T18:10:17.702Z,12.03
2019-05-16T18:12:48.062Z,17.67
2019-05-16T18:15:20.463Z,17.17
2019-05-16T18:17:48.889Z,18.40
2019-05-16T18:20:18.400Z,16.17
2019-05-16T18:22:47.285Z,17.27
2019-05-16T18:25:16.352Z,18.12
2019-05-16T18:27:44.779Z,22.95
2019-05-16T18:30:13.318Z,18.80
2019-05-16T18:32:41.713Z,18.30
2019-05-16T18:35:10.374Z,21.97
2019-05-16T18:37:38.698Z,20.43
2019-05-16T18:40:08.152Z,17.87
2019-05-16T18:42:37.048Z,23.15
2019-05-16T18:45:08.772Z,22.65
2019-05-16T18:47:37.939Z,19.05
2019-05-16T18:50:10.368Z,17.37
2019-05-16T18:52:38.758Z,18.57
2019-05-16T18:55:08.539Z,15.90
2019-05-16T18:57:37.791Z,23.55
2019-05-16T19:00:10.575Z,17.77
2019-05-16T19:02:37.516Z,16.48
2019-05-16T19:05:07.165Z,17.55
2019-05-16T19:07:36.914Z,18.27
2019-05-16T19:10:07.346Z,18.27
2019-05-16T19:12:37.243Z,16.10
2019-05-16T19:15:08.888Z,18.20
2019-05-16T19:17:37.496Z,16.42
2019-05-16T19:20:06.802Z,15.90
2019-05-16T19:22:37.177Z,17.10
2019-05-16T19:25:07.084Z,15.18
2019-05-16T19:27:37.093Z,17.90
2019-05-16T19:30:07.286Z,16.77
2019-05-16T19:32:39.074Z,14.80
2019-05-16T19:35:07.377Z,17.15
2019-05-16T19:37:40.492Z,16.73
2019-05-16T19:40:06.568Z,16.55
2019-05-16T19:42:36.808Z,18.48
2019-05-16T19:45:09.017Z,17.20
2019-05-16T19:47:41.063Z,15.23
2019-05-16T19:50:07.732Z,15.20
2019-05-16T19:52:36.703Z,15.28
2019-05-16T19:55:09.369Z,14.73
2019-05-16T19:57:37.746Z,14.25
2019-05-16T20:00:07.491Z,16.95
2019-05-16T20:02:36.839Z,15.98
2019-05-16T20:05:06.631Z,16.32
2019-05-16T20:07:37.267Z,16.00
2019-05-16T20:10:09.397Z,21.40
2019-05-16T20:12:37.209Z,16.85
2019-05-16T20:17:52.161Z,15.88
2019-05-16T20:20:11.635Z,15.40
2019-05-16T20:22:40.114Z,14.33
2019-05-16T20:25:08.754Z,14.07
2019-05-16T20:27:37.175Z,16.37
2019-05-16T20:30:07.037Z,13.53
2019-05-16T20:32:37.174Z,13.95
2019-05-16T20:35:08.783Z,12.40
2019-05-16T20:37:36.827Z,13.68
2019-05-16T20:40:09.214Z,14.28
2019-05-16T20:42:36.942Z,14.25
2019-05-16T20:45:08.097Z,12.50
2019-05-16T20:47:36.436Z,14.40
2019-05-16T20:50:07.620Z,14.78
2019-05-16T20:52:37.801Z,14.07
2019-05-16T20:55:07.381Z,15.65
2019-05-16T20:57:37.813Z,15.50
2019-05-16T21:00:07.202Z,14.07
2019-05-16T21:02:37.930Z,15.93
2019-05-16T21:05:06.782Z,15.38
2019-05-16T21:07:37.594Z,14.23
2019-05-16T21:10:08.033Z,13.22
2019-05-16T21:12:40.060Z,15.85
2019-05-16T21:15:07.395Z,15.03
2019-05-16T21:17:35.855Z,14.68
2019-05-16T21:20:07.214Z,13.80
2019-05-16T21:22:37.131Z,13.50
2019-05-16T21:25:06.351Z,17.57
2019-05-16T21:27:37.617Z,13.38
2019-05-16T21:30:07.518Z,14.47
2019-05-16T21:32:36.650Z,16.42
2019-05-16T21:35:07.246Z,12.47
2019-05-16T21:37:37.411Z,13.35
2019-05-16T21:40:08.183Z,15.00
2019-05-16T21:42:36.645Z,15.32
2019-05-16T21:45:07.153Z,12.90
2019-05-16T21:47:36.917Z,15.25
2019-05-16T21:50:07.825Z,12.37
2019-05-16T21:52:36.523Z,16.50
2019-05-16T21:55:07.252Z,11.63
2019-05-16T21:57:37.708Z,15.65
2019-05-16T22:00:13.388Z,15.15
2019-05-16T22:02:41.757Z,15.93
2019-05-16T22:05:10.323Z,13.93
2019-05-16T22:07:38.683Z,11.60
2019-05-16T22:10:07.447Z,13.40
2019-05-16T22:12:38.203Z,11.40
2019-05-16T22:15:06.779Z,12.28
2019-05-16T22:17:36.640Z,13.80
2019-05-16T22:20:07.144Z,15.13
2019-05-16T22:22:38.607Z,12.37
2019-05-16T22:25:07.793Z,14.10
2019-05-16T22:27:36.481Z,12.58
2019-05-16T22:30:08.149Z,12.70
2019-05-16T22:32:36.445Z,13.13
2019-05-16T22:35:08.050Z,12.82
2019-05-16T22:37:48.856Z,11.68
2019-05-16T22:40:06.925Z,15.75
2019-05-16T22:42:37.286Z,11.50
2019-05-16T22:45:10.699Z,18.17
2019-05-16T22:47:39.039Z,13.22
2019-05-16T22:50:07.990Z,12.30
2019-05-16T22:52:36.854Z,10.98
2019-05-16T22:55:07.495Z,11.40
2019-05-16T22:57:35.840Z,10.82
2019-05-16T23:00:10.939Z,11.83
2019-05-16T23:02:39.317Z,11.83
2019-05-16T23:05:07.692Z,19.00
2019-05-16T23:07:36.733Z,9.95
2019-05-16T23:10:07.378Z,10.63
2019-05-16T23:12:37.172Z,12.65
2019-05-16T23:15:07.007Z,13.55
2019-05-16T23:17:37.533Z,11.08
2019-05-16T23:20:06.493Z,10.60
2019-05-16T23:22:36.757Z,12.47
2019-05-16T23:25:06.725Z,10.85
2019-05-16T23:27:36.844Z,12.43
2019-05-16T23:30:09.052Z,12.47
2019-05-16T23:32:37.398Z,12.40
2019-05-16T23:35:07.292Z,11.03
2019-05-16T23:37:37.017Z,10.82
2019-05-16T23:40:09.679Z,11.25
2019-05-16T23:42:37.986Z,10.23
2019-05-16T23:45:09.240Z,11.73
2019-05-16T23:47:37.714Z,10.03
2019-05-16T23:50:07.928Z,12.47
2019-05-16T23:52:36.927Z,10.45
2019-05-16T23:55:08.326Z,10.18
2019-05-16T23:57:37.515Z,8.93
